createdAt,value
2018-11-03T00:00:01.084Z,21.77
2018-11-03T00:02:31.350Z,21.03
2018-11-03T00:05:01.610Z,21.90
2018-11-03T00:07:31.840Z,22.00
2018-11-03T00:10:02.132Z,22.73
2018-11-03T00:12:32.396Z,20.70
2018-11-03T00:15:02.632Z,21.93
2018-11-03T00:17:32.932Z,21.00
2018-11-03T00:20:03.354Z,21.47
2018-11-03T00:22:33.684Z,20.60
2018-11-03T00:25:03.981Z,22.23
2018-11-03T00:27:34.277Z,20.73
2018-11-03T00:30:05.842Z,20.10
2018-11-03T00:32:36.100Z,19.73
2018-11-03T00:35:06.543Z,19.53
2018-11-03T00:37:36.795Z,21.80
2018-11-03T00:40:10.171Z,22.17
2018-11-03T00:42:40.541Z,21.93
2018-11-03T00:45:12.016Z,23.10
2018-11-03T00:47:43.167Z,20.90
2018-11-03T00:50:14.596Z,20.60
2018-11-03T00:52:45.141Z,19.60
2018-11-03T00:55:15.471Z,20.60
2018-11-03T00:57:45.735Z,19.33
2018-11-03T01:00:17.778Z,21.20
2018-11-03T01:02:49.075Z,20.27
2018-11-03T01:05:19.338Z,19.20
2018-11-03T01:07:49.568Z,18.30
2018-11-03T01:10:19.885Z,18.40
2018-11-03T01:12:50.115Z,16.37
2018-11-03T01:15:20.392Z,17.07
2018-11-03T01:17:50.668Z,17.30
2018-11-03T01:20:20.932Z,18.77
2018-11-03T01:22:51.206Z,18.57
2018-11-03T01:25:21.449Z,16.23
2018-11-03T01:27:51.707Z,18.30
2018-11-03T01:30:21.961Z,17.33
2018-11-03T01:32:52.224Z,17.60
2018-11-03T01:35:22.479Z,16.90
2018-11-03T01:37:52.748Z,17.80
2018-11-03T01:40:22.990Z,17.83
2018-11-03T01:42:53.278Z,17.03
2018-11-03T01:45:23.511Z,18.17
2018-11-03T01:47:53.772Z,17.73
2018-11-03T01:50:24.043Z,17.93
2018-11-03T01:52:54.289Z,17.23
2018-11-03T01:55:24.570Z,16.80
2018-11-03T01:57:54.887Z,16.40
2018-11-03T02:00:25.126Z,17.03
2018-11-03T02:02:55.382Z,17.07
2018-11-03T02:05:25.669Z,16.87
2018-11-03T02:07:55.943Z,16.63
2018-11-03T02:10:26.177Z,17.80
2018-11-03T02:12:56.496Z,15.57
2018-11-03T02:15:26.752Z,17.00
2018-11-03T02:17:57.017Z,16.07
2018-11-03T02:20:27.247Z,15.90
2018-11-03T02:22:57.511Z,16.43
2018-11-03T02:25:27.786Z,14.70
2018-11-03T02:27:58.060Z,15.80
2018-11-03T02:30:28.319Z,14.77
2018-11-03T02:32:58.604Z,16.73
2018-11-03T02:35:28.878Z,14.67
2018-11-03T02:37:59.112Z,17.97
2018-11-03T02:40:29.380Z,15.23
2018-11-03T02:42:59.694Z,15.20
2018-11-03T02:45:29.948Z,16.10
2018-11-03T02:48:00.212Z,16.57
2018-11-03T02:50:30.447Z,15.50
2018-11-03T02:53:00.725Z,15.70
2018-11-03T02:55:31.012Z,16.63
2018-11-03T02:58:01.284Z,15.47
2018-11-03T03:00:31.610Z,15.67
2018-11-03T03:03:01.846Z,15.87
2018-11-03T03:05:32.083Z,17.10
2018-11-03T03:08:02.371Z,15.00
2018-11-03T03:10:32.636Z,15.67
2018-11-03T03:13:02.939Z,14.27
2018-11-03T03:15:33.244Z,15.50
2018-11-03T03:18:03.488Z,15.87
2018-11-03T03:20:33.772Z,14.00
2018-11-03T03:23:04.068Z,15.03
2018-11-03T03:25:34.359Z,15.20
2018-11-03T03:28:04.655Z,16.77
2018-11-03T03:30:35.025Z,13.73
2018-11-03T03:33:05.260Z,14.70
2018-11-03T03:35:35.586Z,14.10
2018-11-03T03:38:05.911Z,14.00
2018-11-03T03:40:36.233Z,13.40
2018-11-03T03:43:06.561Z,14.63
2018-11-03T03:45:36.841Z,13.37
2018-11-03T03:48:07.260Z,14.27
2018-11-03T03:50:37.561Z,13.13
2018-11-03T03:53:07.888Z,12.93
2018-11-03T03:55:38.249Z,13.43
2018-11-03T03:58:08.539Z,13.20
2018-11-03T04:00:38.852Z,14.10
2018-11-03T04:03:09.104Z,14.60
2018-11-03T04:05:39.388Z,14.90
2018-11-03T04:08:09.715Z,13.93
2018-11-03T04:10:40.073Z,14.73
2018-11-03T04:13:10.329Z,13.13
2018-11-03T04:15:40.893Z,13.83
2018-11-03T04:18:11.220Z,13.07
2018-11-03T04:20:41.498Z,15.00
2018-11-03T04:23:11.871Z,13.03
2018-11-03T04:25:42.119Z,12.93
2018-11-03T04:28:12.449Z,13.30
2018-11-03T04:30:42.771Z,13.23
2018-11-03T04:33:13.072Z,12.67
2018-11-03T04:35:43.356Z,12.40
2018-11-03T04:38:13.663Z,13.53
2018-11-03T04:40:43.954Z,13.87
2018-11-03T04:43:14.219Z,13.73
2018-11-03T04:45:44.517Z,13.20
2018-11-03T04:48:14.784Z,12.93
2018-11-03T04:50:45.042Z,13.00
2018-11-03T04:53:15.355Z,14.30
2018-11-03T04:55:45.650Z,13.60
2018-11-03T04:58:15.947Z,21.00
2018-11-03T05:00:46.225Z,14.83
2018-11-03T05:03:16.568Z,20.30
2018-11-03T05:05:46.840Z,14.47
2018-11-03T05:08:17.107Z,13.27
2018-11-03T05:10:47.389Z,14.00
2018-11-03T05:13:17.689Z,13.70
2018-11-03T05:15:47.936Z,27.73
2018-11-03T05:18:18.198Z,21.40
2018-11-03T05:20:48.488Z,13.97
2018-11-03T05:23:18.760Z,13.27
2018-11-03T05:25:49.017Z,12.83
2018-11-03T05:28:19.300Z,13.80
2018-11-03T05:30:49.621Z,14.43
2018-11-03T05:33:19.943Z,14.97
2018-11-03T05:35:50.215Z,15.30
2018-11-03T05:38:20.905Z,14.90
2018-11-03T05:40:51.146Z,15.20
2018-11-03T05:43:21.487Z,14.83
2018-11-03T05:45:51.757Z,14.97
2018-11-03T05:48:22.079Z,15.53
2018-11-03T05:50:52.327Z,15.67
2018-11-03T05:53:22.679Z,16.40
2018-11-03T05:55:52.926Z,15.97
2018-11-03T05:58:23.260Z,15.73
2018-11-03T06:00:53.522Z,14.53
2018-11-03T06:03:23.869Z,16.60
2018-11-03T06:05:54.147Z,13.93
2018-11-03T06:08:24.458Z,16.17
2018-11-03T06:10:54.724Z,15.30
2018-11-03T06:13:25.016Z,16.37
2018-11-03T06:15:55.255Z,14.53
2018-11-03T06:18:25.541Z,13.87
2018-11-03T06:20:55.800Z,14.03
2018-11-03T06:23:26.157Z,14.97
2018-11-03T06:25:56.536Z,14.30
2018-11-03T06:28:26.831Z,14.97
2018-11-03T06:30:57.116Z,15.43
2018-11-03T06:33:27.409Z,15.50
2018-11-03T06:35:57.636Z,15.50
2018-11-03T06:38:27.960Z,15.20
2018-11-03T06:40:58.257Z,13.73
2018-11-03T06:43:28.496Z,13.30
2018-11-03T06:45:58.789Z,13.27
2018-11-03T06:48:29.064Z,19.87
2018-11-03T06:50:59.418Z,15.40
2018-11-03T06:53:29.711Z,15.93
2018-11-03T06:56:00.029Z,15.03
2018-11-03T06:58:30.317Z,18.50
2018-11-03T07:01:00.638Z,16.40
2018-11-03T07:03:30.900Z,15.63
2018-11-03T07:06:01.210Z,13.93
2018-11-03T07:08:31.537Z,13.60
2018-11-03T07:11:01.879Z,15.47
2018-11-03T07:13:32.178Z,16.40
2018-11-03T07:16:02.460Z,14.30
2018-11-03T07:18:32.803Z,15.00
2018-11-03T07:21:03.065Z,15.00
2018-11-03T07:23:33.390Z,15.00
2018-11-03T07:26:03.830Z,16.70
2018-11-03T07:28:34.214Z,16.83
2018-11-03T07:31:04.513Z,16.87
2018-11-03T07:33:34.792Z,17.70
2018-11-03T07:36:05.200Z,15.93
2018-11-03T07:38:35.448Z,16.00
2018-11-03T07:41:06.323Z,16.27
2018-11-03T07:43:36.434Z,16.53
2018-11-03T07:46:07.175Z,16.97
2018-11-03T07:48:37.571Z,17.17
2018-11-03T07:51:07.758Z,16.30
2018-11-03T07:53:38.022Z,15.50
2018-11-03T07:56:08.361Z,18.00
2018-11-03T07:58:38.732Z,16.67
2018-11-03T08:01:08.970Z,17.13
2018-11-03T08:03:39.252Z,17.90
2018-11-03T08:06:09.500Z,22.93
2018-11-03T08:08:39.818Z,34.77
2018-11-03T08:11:10.090Z,27.83
2018-11-03T08:13:40.393Z,17.67
2018-11-03T08:16:10.670Z,16.60
2018-11-03T08:18:40.996Z,16.23
2018-11-03T08:21:11.247Z,16.13
2018-11-03T08:23:41.545Z,17.80
2018-11-03T08:26:11.760Z,16.77
2018-11-03T08:28:42.060Z,16.33
2018-11-03T08:31:12.313Z,18.00
2018-11-03T08:33:42.605Z,24.57
2018-11-03T08:36:12.828Z,17.90
2018-11-03T08:38:43.159Z,17.43
2018-11-03T08:41:13.391Z,16.87
2018-11-03T08:43:43.679Z,16.90
2018-11-03T08:46:13.934Z,16.80
2018-11-03T08:48:44.197Z,15.70
2018-11-03T08:51:14.488Z,15.87
2018-11-03T08:53:44.776Z,18.87
2018-11-03T08:56:15.030Z,16.97
2018-11-03T08:58:45.284Z,17.23
2018-11-03T09:01:15.577Z,16.80
2018-11-03T09:03:45.834Z,15.57
2018-11-03T09:06:16.080Z,14.73
2018-11-03T09:08:46.493Z,15.23
2018-11-03T09:11:16.793Z,16.90
2018-11-03T09:13:47.092Z,15.50
2018-11-03T09:16:17.352Z,16.63
2018-11-03T09:18:47.618Z,16.90
2018-11-03T09:21:17.907Z,16.67
2018-11-03T09:23:48.185Z,15.70
2018-11-03T09:26:18.409Z,15.60
2018-11-03T09:28:48.721Z,15.00
2018-11-03T09:31:18.983Z,15.93
2018-11-03T09:33:49.304Z,16.33
2018-11-03T09:36:19.584Z,16.63
2018-11-03T09:38:49.897Z,16.20
2018-11-03T09:41:20.177Z,16.60
2018-11-03T09:43:50.759Z,16.17
2018-11-03T09:46:21.034Z,15.50
2018-11-03T09:48:51.344Z,15.13
2018-11-03T09:51:21.732Z,17.33
2018-11-03T09:53:51.876Z,16.60
2018-11-03T09:56:22.372Z,16.20
2018-11-03T09:58:52.642Z,17.17
2018-11-03T10:01:22.945Z,16.50
2018-11-03T10:03:53.289Z,16.90
2018-11-03T10:06:23.634Z,15.37
2018-11-03T10:08:53.940Z,16.30
2018-11-03T10:11:24.187Z,17.57
2018-11-03T10:13:54.494Z,17.20
2018-11-03T10:16:24.752Z,16.70
2018-11-03T10:18:55.101Z,16.43
2018-11-03T10:21:25.356Z,17.57
2018-11-03T10:23:55.669Z,19.07
2018-11-03T10:26:25.958Z,16.67
2018-11-03T10:28:56.220Z,18.90
2018-11-03T10:31:26.523Z,16.10
2018-11-03T10:33:56.794Z,16.13
2018-11-03T10:36:27.108Z,15.53
2018-11-03T10:38:57.395Z,16.97
2018-11-03T10:41:27.699Z,15.93
2018-11-03T10:43:57.957Z,15.83
2018-11-03T10:46:28.228Z,16.40
2018-11-03T10:48:58.503Z,16.20
2018-11-03T10:51:28.877Z,14.57
2018-11-03T10:53:59.212Z,15.50
2018-11-03T10:56:29.474Z,15.97
2018-11-03T10:58:59.782Z,16.50
2018-11-03T11:01:35.209Z,17.20
2018-11-03T11:04:10.716Z,15.37
2018-11-03T11:07:18.281Z,15.90
2018-11-03T11:09:53.855Z,16.20
2018-11-03T11:12:29.171Z,14.87
2018-11-03T11:14:59.485Z,15.33
2018-11-03T11:17:29.749Z,15.30
2018-11-03T11:20:00.089Z,15.50
2018-11-03T11:22:30.391Z,15.70
2018-11-03T11:25:00.714Z,16.90
2018-11-03T11:27:30.936Z,16.93
2018-11-03T11:30:01.287Z,16.67
2018-11-03T11:32:31.862Z,16.27
2018-11-03T11:35:02.110Z,17.13
2018-11-03T11:37:32.501Z,15.70
2018-11-03T11:40:03.409Z,14.90
2018-11-03T11:42:33.762Z,14.40
2018-11-03T11:45:04.040Z,14.13
2018-11-03T11:47:35.084Z,16.30
2018-11-03T11:50:05.732Z,15.27
2018-11-03T11:52:36.531Z,16.13
2018-11-03T11:55:07.309Z,15.73
2018-11-03T11:57:37.456Z,15.07
2018-11-03T12:00:07.814Z,15.47
2018-11-03T12:02:38.069Z,16.20
2018-11-03T12:05:08.445Z,16.47
2018-11-03T12:07:38.838Z,15.20
2018-11-03T12:10:09.422Z,15.20
2018-11-03T12:12:39.580Z,15.93
2018-11-03T12:15:10.627Z,15.40
2018-11-03T12:17:41.003Z,15.77
2018-11-03T12:20:11.289Z,15.07
2018-11-03T12:22:41.620Z,15.63
2018-11-03T12:25:13.275Z,17.30
2018-11-03T12:27:43.601Z,15.70
2018-11-03T12:30:14.972Z,14.60
2018-11-03T12:32:45.293Z,15.80
2018-11-03T12:35:15.686Z,16.70
2018-11-03T12:37:45.959Z,16.30
2018-11-03T12:40:16.738Z,16.60
2018-11-03T12:42:47.044Z,15.03
2018-11-03T12:45:17.328Z,15.13
2018-11-03T12:47:47.593Z,15.57
2018-11-03T12:50:18.887Z,15.17
2018-11-03T12:52:49.226Z,15.73
2018-11-03T12:55:19.492Z,15.53
2018-11-03T12:57:49.773Z,16.20
2018-11-03T13:00:20.068Z,15.50
2018-11-03T13:02:50.392Z,16.40
2018-11-03T13:05:20.926Z,15.70
2018-11-03T13:07:51.056Z,16.10
2018-11-03T13:10:21.330Z,14.40
2018-11-03T13:12:51.592Z,15.70
2018-11-03T13:15:21.907Z,15.20
2018-11-03T13:17:52.285Z,16.40
2018-11-03T13:20:22.617Z,15.93
2018-11-03T13:22:52.971Z,15.33
2018-11-03T13:25:23.194Z,15.90
2018-11-03T13:27:53.436Z,13.90
2018-11-03T13:30:23.772Z,15.43
2018-11-03T13:32:54.059Z,15.80
2018-11-03T13:35:24.336Z,15.50
2018-11-03T13:37:54.634Z,15.40
2018-11-03T13:40:24.937Z,15.63
2018-11-03T13:42:55.182Z,15.50
2018-11-03T13:45:25.441Z,16.57
2018-11-03T13:47:55.722Z,14.63
2018-11-03T13:50:26.223Z,15.60
2018-11-03T13:52:57.290Z,16.70
2018-11-03T13:55:27.550Z,15.90
2018-11-03T13:57:57.828Z,15.33
2018-11-03T14:00:28.132Z,15.20
2018-11-03T14:02:58.383Z,14.50
2018-11-03T14:05:28.675Z,15.73
2018-11-03T14:07:58.992Z,16.00
2018-11-03T14:10:29.236Z,15.60
2018-11-03T14:12:59.568Z,16.17
2018-11-03T14:15:29.797Z,16.40
2018-11-03T14:18:00.068Z,14.40
2018-11-03T14:20:30.314Z,15.30
2018-11-03T14:23:00.595Z,17.43
2018-11-03T14:25:31.729Z,17.00
2018-11-03T14:28:02.076Z,20.17
2018-11-03T14:30:32.366Z,22.37
2018-11-03T14:33:02.630Z,24.63
2018-11-03T14:35:32.984Z,27.10
2018-11-03T14:38:03.236Z,27.47
2018-11-03T14:40:33.524Z,28.97
2018-11-03T14:43:03.816Z,29.67
2018-11-03T14:45:34.046Z,32.10
2018-11-03T14:48:04.306Z,30.50
2018-11-03T14:50:35.317Z,30.70
2018-11-03T14:53:05.541Z,29.30
2018-11-03T14:55:35.850Z,28.60
2018-11-03T14:58:06.709Z,28.40
2018-11-03T15:00:37.796Z,28.13
2018-11-03T15:03:08.733Z,28.90
2018-11-03T15:05:38.969Z,26.33
2018-11-03T15:08:09.289Z,27.40
2018-11-03T15:10:39.655Z,27.57
2018-11-03T15:13:09.910Z,27.63
2018-11-03T15:15:40.205Z,26.87
2018-11-03T15:18:10.468Z,26.60
2018-11-03T15:20:40.777Z,27.20
2018-11-03T15:23:11.036Z,26.30
2018-11-03T15:25:41.325Z,25.23
2018-11-03T15:28:11.678Z,25.70
2018-11-03T15:30:41.959Z,38.27
2018-11-03T15:33:12.259Z,35.57
2018-11-03T15:35:42.575Z,28.10
2018-11-03T15:38:12.869Z,25.60
2018-11-03T15:40:43.184Z,23.07
2018-11-03T15:43:13.454Z,23.50
2018-11-03T15:45:43.744Z,23.70
2018-11-03T15:48:14.034Z,24.60
2018-11-03T15:50:49.484Z,23.83
2018-11-03T15:53:20.272Z,24.93
2018-11-03T15:55:50.533Z,25.10
2018-11-03T15:58:21.552Z,24.80
2018-11-03T16:00:51.783Z,25.60
2018-11-03T16:03:22.060Z,30.37
2018-11-03T16:05:52.342Z,29.57
2018-11-03T16:08:22.721Z,27.97
2018-11-03T16:10:53.019Z,39.07
2018-11-03T16:13:23.398Z,28.87
2018-11-03T16:15:53.665Z,27.50
2018-11-03T16:18:23.934Z,23.30
2018-11-03T16:20:54.377Z,23.67
2018-11-03T16:23:24.613Z,20.70
2018-11-03T16:25:54.884Z,23.87
2018-11-03T16:28:25.496Z,21.20
2018-11-03T16:30:55.812Z,24.70
2018-11-03T16:33:26.099Z,22.67
2018-11-03T16:35:56.479Z,22.53
2018-11-03T16:38:26.833Z,26.03
2018-11-03T16:40:57.089Z,27.60
2018-11-03T16:43:27.331Z,33.73
2018-11-03T16:45:57.633Z,32.47
2018-11-03T16:48:27.943Z,32.50
2018-11-03T16:50:58.328Z,27.83
2018-11-03T16:53:28.616Z,40.07
2018-11-03T16:55:58.896Z,40.73
2018-11-03T16:58:29.162Z,27.30
2018-11-03T17:00:59.404Z,41.40
2018-11-03T17:03:29.684Z,48.87
2018-11-03T17:05:59.931Z,36.40
2018-11-03T17:08:30.204Z,27.27
2018-11-03T17:11:00.489Z,28.47
2018-11-03T17:13:30.784Z,27.13
2018-11-03T17:16:01.016Z,24.43
2018-11-03T17:18:32.068Z,25.87
2018-11-03T17:21:02.281Z,25.23
2018-11-03T17:23:32.670Z,25.20
2018-11-03T17:26:02.897Z,25.67
2018-11-03T17:28:33.177Z,41.73
2018-11-03T17:31:03.847Z,33.07
2018-11-03T17:33:34.086Z,29.13
2018-11-03T17:36:04.373Z,27.27
2018-11-03T17:38:34.645Z,24.87
2018-11-03T17:41:05.008Z,24.27
2018-11-03T17:43:35.220Z,25.30
2018-11-03T17:46:05.639Z,26.87
2018-11-03T17:48:36.131Z,25.37
2018-11-03T17:51:06.556Z,24.37
2018-11-03T17:53:36.870Z,24.70
2018-11-03T17:56:07.228Z,24.70
2018-11-03T17:58:37.529Z,25.03
2018-11-03T18:01:08.466Z,23.23
2018-11-03T18:03:38.732Z,25.50
2018-11-03T18:06:09.033Z,24.80
2018-11-03T18:08:39.276Z,23.70
2018-11-03T18:11:09.596Z,26.40
2018-11-03T18:13:39.892Z,24.33
2018-11-03T18:16:10.132Z,23.70
2018-11-03T18:18:40.652Z,31.60
2018-11-03T18:21:11.008Z,41.10
2018-11-03T18:23:41.889Z,24.83
2018-11-03T18:26:12.315Z,21.33
2018-11-03T18:28:42.442Z,21.50
2018-11-03T18:31:12.743Z,21.57
2018-11-03T18:33:43.091Z,21.43
2018-11-03T18:36:13.288Z,21.47
2018-11-03T18:38:43.533Z,22.40
2018-11-03T18:41:13.802Z,22.23
2018-11-03T18:43:44.100Z,23.30
2018-11-03T18:46:14.405Z,25.57
2018-11-03T18:48:44.717Z,25.47
2018-11-03T18:51:15.000Z,23.87
2018-11-03T18:53:45.217Z,24.70
2018-11-03T18:56:15.553Z,24.40
2018-11-03T18:58:45.863Z,23.40
2018-11-03T19:01:16.100Z,21.97
2018-11-03T19:03:46.400Z,24.40
2018-11-03T19:06:16.712Z,24.47
2018-11-03T19:08:46.980Z,23.77
2018-11-03T19:11:17.261Z,22.97
2018-11-03T19:13:48.009Z,22.30
2018-11-03T19:16:18.277Z,23.20
2018-11-03T19:18:48.531Z,39.17
2018-11-03T19:21:18.856Z,35.30
2018-11-03T19:23:49.832Z,29.43
2018-11-03T19:26:19.965Z,24.97
2018-11-03T19:28:50.297Z,26.43
2018-11-03T19:31:20.558Z,26.80
2018-11-03T19:33:50.830Z,26.57
2018-11-03T19:36:21.138Z,24.70
2018-11-03T19:38:51.855Z,24.13
2018-11-03T19:41:22.485Z,25.33
2018-11-03T19:43:52.930Z,23.20
2018-11-03T19:46:23.322Z,24.97
2018-11-03T19:48:53.619Z,25.90
2018-11-03T19:51:23.928Z,24.60
2018-11-03T19:53:54.282Z,26.03
2018-11-03T19:56:24.607Z,27.27
2018-11-03T19:58:54.848Z,23.80
2018-11-03T20:01:25.154Z,24.50
2018-11-03T20:03:55.399Z,25.87
2018-11-03T20:06:25.676Z,24.30
2018-11-03T20:08:55.921Z,23.40
2018-11-03T20:11:26.351Z,24.53
2018-11-03T20:13:56.671Z,24.17
2018-11-03T20:16:26.926Z,24.93
2018-11-03T20:18:57.219Z,23.73
2018-11-03T20:21:27.538Z,23.20
2018-11-03T20:23:57.811Z,22.87
2018-11-03T20:26:28.212Z,22.83
2018-11-03T20:28:58.522Z,24.60
2018-11-03T20:31:28.786Z,22.77
2018-11-03T20:33:59.166Z,21.87
2018-11-03T20:36:29.471Z,21.80
2018-11-03T20:38:59.718Z,23.20
2018-11-03T20:41:29.937Z,21.47
2018-11-03T20:44:00.686Z,24.20
2018-11-03T20:46:30.920Z,20.77
2018-11-03T20:49:01.196Z,23.30
2018-11-03T20:51:31.461Z,22.63
2018-11-03T20:54:01.890Z,23.00
2018-11-03T20:56:32.093Z,24.80
2018-11-03T20:59:02.370Z,23.03
2018-11-03T21:01:32.635Z,22.93
2018-11-03T21:04:02.921Z,24.20
2018-11-03T21:06:33.172Z,24.43
2018-11-03T21:09:04.141Z,22.73
2018-11-03T21:11:34.477Z,24.23
2018-11-03T21:14:04.829Z,24.80
2018-11-03T21:16:35.375Z,22.10
2018-11-03T21:19:06.360Z,22.47
2018-11-03T21:21:36.631Z,21.77
2018-11-03T21:24:07.057Z,21.47
2018-11-03T21:26:37.237Z,24.43
2018-11-03T21:29:08.134Z,23.53
2018-11-03T21:31:38.417Z,22.23
2018-11-03T21:34:08.869Z,20.30
2018-11-03T21:36:39.153Z,20.80
2018-11-03T21:39:10.937Z,22.30
2018-11-03T21:41:41.272Z,25.70
2018-11-03T21:44:11.529Z,23.80
2018-11-03T21:46:42.023Z,22.20
2018-11-03T21:49:12.781Z,28.03
2018-11-03T21:51:43.041Z,23.33
2018-11-03T21:54:13.337Z,23.13
2018-11-03T21:56:43.644Z,20.70
2018-11-03T21:59:14.194Z,22.50
2018-11-03T22:01:44.455Z,24.07
2018-11-03T22:04:14.809Z,21.60
2018-11-03T22:06:45.133Z,21.10
2018-11-03T22:09:15.421Z,21.73
2018-11-03T22:11:45.693Z,22.23
2018-11-03T22:14:15.997Z,21.20
2018-11-03T22:16:46.286Z,22.30
2018-11-03T22:19:16.571Z,22.13
2018-11-03T22:21:46.916Z,21.83
2018-11-03T22:24:17.145Z,21.50
2018-11-03T22:26:47.448Z,23.90
2018-11-03T22:29:17.734Z,21.77
2018-11-03T22:31:48.003Z,20.67
2018-11-03T22:34:18.293Z,22.10
2018-11-03T22:36:48.605Z,21.03
2018-11-03T22:39:18.894Z,21.77
2018-11-03T22:41:49.224Z,21.43
2018-11-03T22:44:19.548Z,21.13
2018-11-03T22:46:49.854Z,20.77
2018-11-03T22:49:20.116Z,20.67
2018-11-03T22:51:50.459Z,21.07
2018-11-03T22:54:20.692Z,22.13
2018-11-03T22:56:51.044Z,22.50
2018-11-03T22:59:21.303Z,22.10
2018-11-03T23:01:51.553Z,21.37
2018-11-03T23:04:21.908Z,20.73
2018-11-03T23:06:52.174Z,20.37
2018-11-03T23:09:22.505Z,19.53
2018-11-03T23:11:52.849Z,20.23
2018-11-03T23:14:23.127Z,18.40
2018-11-03T23:16:53.461Z,21.30
2018-11-03T23:19:23.955Z,19.80
2018-11-03T23:21:54.317Z,21.80
2018-11-03T23:24:24.530Z,20.40
2018-11-03T23:26:54.837Z,19.43
2018-11-03T23:29:25.146Z,19.47
2018-11-03T23:31:55.506Z,18.20
2018-11-03T23:34:25.956Z,19.50
2018-11-03T23:36:56.450Z,19.10
2018-11-03T23:39:26.765Z,19.80
2018-11-03T23:41:57.185Z,18.33
2018-11-03T23:44:27.683Z,18.57
2018-11-03T23:46:57.985Z,18.00
2018-11-03T23:49:28.233Z,16.17
2018-11-03T23:51:58.659Z,20.43
2018-11-03T23:54:29.992Z,20.40
2018-11-03T23:57:00.313Z,18.57
2018-11-03T23:59:30.741Z,19.60
